sensor_id;sensor_type;location;lat;lon;timestamp;P1;durP1;ratioP1;P2;durP2;ratioP2
61806;SDS011;47726;52.766;6.606;2023-04-21T00:01:28;28.30;;;20.88;;
61806;SDS011;47726;52.766;6.606;2023-04-21T00:03:54;25.25;;;19.10;;
61806;SDS011;47726;52.766;6.606;2023-04-21T00:06:19;26.58;;;19.90;;
61806;SDS011;47726;52.766;6.606;2023-04-21T00:08:47;26.13;;;19.00;;
61806;SDS011;47726;52.766;6.606;2023-04-21T00:11:13;25.35;;;19.42;;
61806;SDS011;47726;52.766;6.606;2023-04-21T00:13:39;25.63;;;19.42;;
61806;SDS011;47726;52.766;6.606;2023-04-21T00:16:05;24.85;;;18.70;;
61806;SDS011;47726;52.766;6.606;2023-04-21T00:18:31;25.75;;;18.42;;
61806;SDS011;47726;52.766;6.606;2023-04-21T00:20:56;25.13;;;19.13;;
61806;SDS011;47726;52.766;6.606;2023-04-21T00:23:22;24.15;;;19.80;;
61806;SDS011;47726;52.766;6.606;2023-04-21T00:25:47;27.55;;;19.85;;
61806;SDS011;47726;52.766;6.606;2023-04-21T00:28:13;24.95;;;18.58;;
61806;SDS011;47726;52.766;6.606;2023-04-21T00:30:39;24.85;;;18.77;;
61806;SDS011;47726;52.766;6.606;2023-04-21T00:33:04;27.10;;;18.80;;
61806;SDS011;47726;52.766;6.606;2023-04-21T00:35:30;25.63;;;18.45;;
61806;SDS011;47726;52.766;6.606;2023-04-21T00:37:55;25.40;;;18.23;;
61806;SDS011;47726;52.766;6.606;2023-04-21T00:40:21;25.55;;;17.88;;
61806;SDS011;47726;52.766;6.606;2023-04-21T00:42:46;26.77;;;18.20;;
61806;SDS011;47726;52.766;6.606;2023-04-21T00:45:12;25.27;;;17.48;;
61806;SDS011;47726;52.766;6.606;2023-04-21T00:47:39;27.92;;;17.40;;
61806;SDS011;47726;52.766;6.606;2023-04-21T00:50:05;24.15;;;17.27;;
61806;SDS011;47726;52.766;6.606;2023-04-21T00:52:31;25.27;;;18.00;;
61806;SDS011;47726;52.766;6.606;2023-04-21T00:54:58;25.08;;;17.27;;
61806;SDS011;47726;52.766;6.606;2023-04-21T00:57:24;23.60;;;16.88;;
61806;SDS011;47726;52.766;6.606;2023-04-21T00:59:49;22.88;;;16.90;;
61806;SDS011;47726;52.766;6.606;2023-04-21T01:02:16;26.23;;;16.77;;
61806;SDS011;47726;52.766;6.606;2023-04-21T01:04:42;22.33;;;16.23;;
61806;SDS011;47726;52.766;6.606;2023-04-21T01:07:09;24.20;;;16.63;;
61806;SDS011;47726;52.766;6.606;2023-04-21T01:09:35;24.67;;;16.88;;
61806;SDS011;47726;52.766;6.606;2023-04-21T01:12:08;21.77;;;15.50;;
61806;SDS011;47726;52.766;6.606;2023-04-21T01:14:35;22.90;;;16.02;;
61806;SDS011;47726;52.766;6.606;2023-04-21T01:17:02;24.90;;;16.50;;
61806;SDS011;47726;52.766;6.606;2023-04-21T01:19:29;22.48;;;15.57;;
61806;SDS011;47726;52.766;6.606;2023-04-21T01:21:58;20.20;;;15.40;;
61806;SDS011;47726;52.766;6.606;2023-04-21T01:24:34;22.48;;;15.15;;
61806;SDS011;47726;52.766;6.606;2023-04-21T01:27:07;19.48;;;14.57;;
61806;SDS011;47726;52.766;6.606;2023-04-21T01:29:45;19.98;;;14.73;;
61806;SDS011;47726;52.766;6.606;2023-04-21T01:32:13;21.08;;;14.63;;
61806;SDS011;47726;52.766;6.606;2023-04-21T01:34:43;21.25;;;14.88;;
61806;SDS011;47726;52.766;6.606;2023-04-21T01:37:14;20.35;;;14.93;;
61806;SDS011;47726;52.766;6.606;2023-04-21T01:39:42;21.10;;;14.70;;
61806;SDS011;47726;52.766;6.606;2023-04-21T01:42:12;20.48;;;14.45;;
61806;SDS011;47726;52.766;6.606;2023-04-21T01:44:38;21.63;;;14.52;;
61806;SDS011;47726;52.766;6.606;2023-04-21T01:47:04;21.42;;;14.27;;
61806;SDS011;47726;52.766;6.606;2023-04-21T01:49:30;20.92;;;14.70;;
61806;SDS011;47726;52.766;6.606;2023-04-21T01:51:56;21.27;;;14.23;;
61806;SDS011;47726;52.766;6.606;2023-04-21T01:54:22;20.38;;;14.35;;
61806;SDS011;47726;52.766;6.606;2023-04-21T01:56:47;20.08;;;15.02;;
61806;SDS011;47726;52.766;6.606;2023-04-21T01:59:13;19.92;;;13.95;;
61806;SDS011;47726;52.766;6.606;2023-04-21T02:01:38;21.52;;;13.75;;
61806;SDS011;47726;52.766;6.606;2023-04-21T02:04:04;20.67;;;14.25;;
61806;SDS011;47726;52.766;6.606;2023-04-21T02:06:30;20.10;;;13.70;;
61806;SDS011;47726;52.766;6.606;2023-04-21T02:08:56;18.85;;;13.90;;
61806;SDS011;47726;52.766;6.606;2023-04-21T02:11:22;18.20;;;14.00;;
61806;SDS011;47726;52.766;6.606;2023-04-21T02:13:49;22.15;;;14.48;;
61806;SDS011;47726;52.766;6.606;2023-04-21T02:16:19;19.23;;;13.35;;
61806;SDS011;47726;52.766;6.606;2023-04-21T02:18:47;22.10;;;13.23;;
61806;SDS011;47726;52.766;6.606;2023-04-21T02:21:13;21.85;;;14.00;;
61806;SDS011;47726;52.766;6.606;2023-04-21T02:23:39;21.45;;;14.13;;
61806;SDS011;47726;52.766;6.606;2023-04-21T02:26:05;18.83;;;13.65;;
61806;SDS011;47726;52.766;6.606;2023-04-21T02:28:31;18.73;;;12.93;;
61806;SDS011;47726;52.766;6.606;2023-04-21T02:30:56;17.23;;;12.55;;
61806;SDS011;47726;52.766;6.606;2023-04-21T02:33:22;19.02;;;13.30;;
61806;SDS011;47726;52.766;6.606;2023-04-21T02:35:47;20.25;;;13.20;;
61806;SDS011;47726;52.766;6.606;2023-04-21T02:38:13;17.30;;;12.70;;
61806;SDS011;47726;52.766;6.606;2023-04-21T02:40:38;20.10;;;13.43;;
61806;SDS011;47726;52.766;6.606;2023-04-21T02:43:05;17.92;;;12.52;;
61806;SDS011;47726;52.766;6.606;2023-04-21T02:45:30;19.60;;;13.35;;
61806;SDS011;47726;52.766;6.606;2023-04-21T02:47:56;18.08;;;12.70;;
61806;SDS011;47726;52.766;6.606;2023-04-21T02:50:24;18.48;;;12.75;;
61806;SDS011;47726;52.766;6.606;2023-04-21T02:52:50;20.92;;;12.85;;
61806;SDS011;47726;52.766;6.606;2023-04-21T02:55:15;23.63;;;13.25;;
61806;SDS011;47726;52.766;6.606;2023-04-21T02:57:41;18.25;;;11.95;;
61806;SDS011;47726;52.766;6.606;2023-04-21T03:00:07;19.05;;;13.18;;
61806;SDS011;47726;52.766;6.606;2023-04-21T03:02:35;18.27;;;12.55;;
61806;SDS011;47726;52.766;6.606;2023-04-21T03:05:01;18.75;;;12.70;;
61806;SDS011;47726;52.766;6.606;2023-04-21T03:07:28;18.95;;;12.90;;
61806;SDS011;47726;52.766;6.606;2023-04-21T03:09:53;19.55;;;12.27;;
61806;SDS011;47726;52.766;6.606;2023-04-21T03:12:19;17.92;;;12.10;;
61806;SDS011;47726;52.766;6.606;2023-04-21T03:14:45;18.92;;;13.18;;
61806;SDS011;47726;52.766;6.606;2023-04-21T03:17:10;21.55;;;13.10;;
61806;SDS011;47726;52.766;6.606;2023-04-21T03:19:36;16.63;;;12.23;;
61806;SDS011;47726;52.766;6.606;2023-04-21T03:22:01;19.67;;;12.55;;
61806;SDS011;47726;52.766;6.606;2023-04-21T03:24:28;17.23;;;11.88;;
61806;SDS011;47726;52.766;6.606;2023-04-21T03:26:54;18.70;;;12.20;;
61806;SDS011;47726;52.766;6.606;2023-04-21T03:29:21;19.17;;;12.38;;
61806;SDS011;47726;52.766;6.606;2023-04-21T03:31:46;18.23;;;12.20;;
61806;SDS011;47726;52.766;6.606;2023-04-21T03:34:12;19.60;;;12.63;;
61806;SDS011;47726;52.766;6.606;2023-04-21T03:36:37;18.67;;;11.73;;
61806;SDS011;47726;52.766;6.606;2023-04-21T03:39:03;19.73;;;12.05;;
61806;SDS011;47726;52.766;6.606;2023-04-21T03:41:29;17.27;;;11.57;;
61806;SDS011;47726;52.766;6.606;2023-04-21T03:43:54;18.17;;;13.30;;
61806;SDS011;47726;52.766;6.606;2023-04-21T03:46:20;17.55;;;12.00;;
61806;SDS011;47726;52.766;6.606;2023-04-21T03:48:46;19.60;;;13.13;;
61806;SDS011;47726;52.766;6.606;2023-04-21T03:51:12;18.45;;;12.20;;
61806;SDS011;47726;52.766;6.606;2023-04-21T03:53:40;18.63;;;12.10;;
61806;SDS011;47726;52.766;6.606;2023-04-21T03:56:05;18.40;;;11.30;;
61806;SDS011;47726;52.766;6.606;2023-04-21T03:58:31;19.30;;;11.80;;
61806;SDS011;47726;52.766;6.606;2023-04-21T04:00:57;18.60;;;12.48;;
61806;SDS011;47726;52.766;6.606;2023-04-21T04:03:22;17.48;;;12.73;;
61806;SDS011;47726;52.766;6.606;2023-04-21T04:05:48;19.02;;;11.85;;
61806;SDS011;47726;52.766;6.606;2023-04-21T04:08:13;18.63;;;12.07;;
61806;SDS011;47726;52.766;6.606;2023-04-21T04:10:39;18.08;;;12.02;;
61806;SDS011;47726;52.766;6.606;2023-04-21T04:13:04;16.58;;;12.32;;
61806;SDS011;47726;52.766;6.606;2023-04-21T04:15:30;18.58;;;11.82;;
61806;SDS011;47726;52.766;6.606;2023-04-21T04:17:56;18.48;;;12.10;;
61806;SDS011;47726;52.766;6.606;2023-04-21T04:20:21;21.75;;;12.35;;
61806;SDS011;47726;52.766;6.606;2023-04-21T04:22:47;16.70;;;12.45;;
61806;SDS011;47726;52.766;6.606;2023-04-21T04:25:12;16.95;;;12.07;;
61806;SDS011;47726;52.766;6.606;2023-04-21T04:27:40;18.63;;;12.52;;
61806;SDS011;47726;52.766;6.606;2023-04-21T04:30:09;16.88;;;12.02;;
61806;SDS011;47726;52.766;6.606;2023-04-21T04:32:36;23.50;;;12.80;;
61806;SDS011;47726;52.766;6.606;2023-04-21T04:35:05;16.20;;;11.93;;
61806;SDS011;47726;52.766;6.606;2023-04-21T04:37:32;16.40;;;11.95;;
61806;SDS011;47726;52.766;6.606;2023-04-21T04:39:59;17.85;;;12.02;;
61806;SDS011;47726;52.766;6.606;2023-04-21T04:42:25;16.00;;;11.98;;
61806;SDS011;47726;52.766;6.606;2023-04-21T04:44:53;16.35;;;12.20;;
61806;SDS011;47726;52.766;6.606;2023-04-21T04:47:21;16.58;;;11.80;;
61806;SDS011;47726;52.766;6.606;2023-04-21T04:49:46;16.17;;;11.93;;
61806;SDS011;47726;52.766;6.606;2023-04-21T04:52:12;20.58;;;12.50;;
61806;SDS011;47726;52.766;6.606;2023-04-21T04:54:37;16.67;;;11.57;;
61806;SDS011;47726;52.766;6.606;2023-04-21T04:57:03;18.67;;;12.38;;
61806;SDS011;47726;52.766;6.606;2023-04-21T04:59:29;17.88;;;11.95;;
61806;SDS011;47726;52.766;6.606;2023-04-21T05:01:55;17.75;;;11.43;;
61806;SDS011;47726;52.766;6.606;2023-04-21T05:04:21;21.92;;;12.43;;
61806;SDS011;47726;52.766;6.606;2023-04-21T05:06:47;18.67;;;12.38;;
61806;SDS011;47726;52.766;6.606;2023-04-21T05:09:12;16.33;;;12.18;;
61806;SDS011;47726;52.766;6.606;2023-04-21T05:11:38;18.38;;;12.93;;
61806;SDS011;47726;52.766;6.606;2023-04-21T05:14:04;19.52;;;12.27;;
61806;SDS011;47726;52.766;6.606;2023-04-21T05:16:29;17.73;;;12.43;;
61806;SDS011;47726;52.766;6.606;2023-04-21T05:18:55;19.08;;;11.88;;
61806;SDS011;47726;52.766;6.606;2023-04-21T05:21:24;17.27;;;12.60;;
61806;SDS011;47726;52.766;6.606;2023-04-21T05:23:56;17.42;;;11.88;;
61806;SDS011;47726;52.766;6.606;2023-04-21T05:26:25;19.98;;;11.73;;
61806;SDS011;47726;52.766;6.606;2023-04-21T05:28:53;16.35;;;11.60;;
61806;SDS011;47726;52.766;6.606;2023-04-21T05:31:19;19.45;;;11.88;;
61806;SDS011;47726;52.766;6.606;2023-04-21T05:33:45;15.98;;;12.07;;
61806;SDS011;47726;52.766;6.606;2023-04-21T05:36:11;17.73;;;11.95;;
61806;SDS011;47726;52.766;6.606;2023-04-21T05:38:36;17.23;;;12.55;;
61806;SDS011;47726;52.766;6.606;2023-04-21T05:41:02;16.95;;;11.88;;
61806;SDS011;47726;52.766;6.606;2023-04-21T05:43:28;19.08;;;11.77;;
61806;SDS011;47726;52.766;6.606;2023-04-21T05:45:57;18.13;;;12.43;;
61806;SDS011;47726;52.766;6.606;2023-04-21T05:48:23;18.83;;;12.13;;
61806;SDS011;47726;52.766;6.606;2023-04-21T05:50:49;16.90;;;11.52;;
61806;SDS011;47726;52.766;6.606;2023-04-21T05:53:14;18.58;;;12.57;;
61806;SDS011;47726;52.766;6.606;2023-04-21T05:55:40;15.93;;;11.73;;
61806;SDS011;47726;52.766;6.606;2023-04-21T05:58:05;16.35;;;11.68;;
61806;SDS011;47726;52.766;6.606;2023-04-21T06:00:31;18.38;;;12.13;;
61806;SDS011;47726;52.766;6.606;2023-04-21T06:02:57;19.40;;;11.82;;
61806;SDS011;47726;52.766;6.606;2023-04-21T06:05:23;17.23;;;11.40;;
61806;SDS011;47726;52.766;6.606;2023-04-21T06:07:48;16.20;;;10.48;;
61806;SDS011;47726;52.766;6.606;2023-04-21T06:10:14;14.10;;;10.70;;
61806;SDS011;47726;52.766;6.606;2023-04-21T06:12:41;17.10;;;11.23;;
61806;SDS011;47726;52.766;6.606;2023-04-21T06:15:06;16.10;;;10.88;;
61806;SDS011;47726;52.766;6.606;2023-04-21T06:17:32;16.50;;;11.40;;
61806;SDS011;47726;52.766;6.606;2023-04-21T06:19:58;18.88;;;11.88;;
61806;SDS011;47726;52.766;6.606;2023-04-21T06:22:24;18.67;;;12.13;;
61806;SDS011;47726;52.766;6.606;2023-04-21T06:24:51;17.58;;;10.63;;
61806;SDS011;47726;52.766;6.606;2023-04-21T06:27:16;16.40;;;11.15;;
61806;SDS011;47726;52.766;6.606;2023-04-21T06:29:42;14.63;;;10.57;;
61806;SDS011;47726;52.766;6.606;2023-04-21T06:32:08;15.60;;;10.93;;
61806;SDS011;47726;52.766;6.606;2023-04-21T06:34:34;18.98;;;10.98;;
61806;SDS011;47726;52.766;6.606;2023-04-21T06:37:00;16.13;;;10.98;;
61806;SDS011;47726;52.766;6.606;2023-04-21T06:39:26;20.15;;;10.75;;
61806;SDS011;47726;52.766;6.606;2023-04-21T06:41:52;24.55;;;11.50;;
61806;SDS011;47726;52.766;6.606;2023-04-21T06:44:17;18.90;;;10.18;;
61806;SDS011;47726;52.766;6.606;2023-04-21T06:46:43;17.08;;;10.68;;
61806;SDS011;47726;52.766;6.606;2023-04-21T06:49:09;15.93;;;10.95;;
61806;SDS011;47726;52.766;6.606;2023-04-21T06:51:35;14.80;;;10.50;;
61806;SDS011;47726;52.766;6.606;2023-04-21T06:54:01;15.50;;;10.60;;
61806;SDS011;47726;52.766;6.606;2023-04-21T06:56:27;15.85;;;10.55;;
61806;SDS011;47726;52.766;6.606;2023-04-21T06:58:54;16.95;;;10.60;;
61806;SDS011;47726;52.766;6.606;2023-04-21T07:01:20;15.73;;;10.93;;
61806;SDS011;47726;52.766;6.606;2023-04-21T07:03:48;16.23;;;10.88;;
61806;SDS011;47726;52.766;6.606;2023-04-21T07:06:14;16.08;;;10.10;;
61806;SDS011;47726;52.766;6.606;2023-04-21T07:08:39;14.57;;;10.23;;
61806;SDS011;47726;52.766;6.606;2023-04-21T07:11:05;18.25;;;10.65;;
61806;SDS011;47726;52.766;6.606;2023-04-21T07:13:31;16.42;;;10.40;;
61806;SDS011;47726;52.766;6.606;2023-04-21T07:15:56;17.55;;;10.32;;
61806;SDS011;47726;52.766;6.606;2023-04-21T07:18:22;16.50;;;10.57;;
61806;SDS011;47726;52.766;6.606;2023-04-21T07:20:48;16.67;;;10.25;;
61806;SDS011;47726;52.766;6.606;2023-04-21T07:23:13;18.17;;;10.50;;
61806;SDS011;47726;52.766;6.606;2023-04-21T07:25:39;18.02;;;10.77;;
61806;SDS011;47726;52.766;6.606;2023-04-21T07:28:04;18.15;;;11.35;;
61806;SDS011;47726;52.766;6.606;2023-04-21T07:30:30;16.70;;;10.57;;
61806;SDS011;47726;52.766;6.606;2023-04-21T07:32:56;19.40;;;11.88;;
61806;SDS011;47726;52.766;6.606;2023-04-21T07:35:22;19.40;;;10.23;;
61806;SDS011;47726;52.766;6.606;2023-04-21T07:37:48;16.70;;;10.85;;
61806;SDS011;47726;52.766;6.606;2023-04-21T07:40:13;17.90;;;10.50;;
61806;SDS011;47726;52.766;6.606;2023-04-21T07:42:39;16.25;;;10.30;;
61806;SDS011;47726;52.766;6.606;2023-04-21T07:45:05;14.60;;;10.50;;
61806;SDS011;47726;52.766;6.606;2023-04-21T07:47:31;17.13;;;10.77;;
61806;SDS011;47726;52.766;6.606;2023-04-21T07:49:57;13.63;;;10.48;;
61806;SDS011;47726;52.766;6.606;2023-04-21T07:52:23;17.10;;;10.90;;
61806;SDS011;47726;52.766;6.606;2023-04-21T07:54:48;16.05;;;10.65;;
61806;SDS011;47726;52.766;6.606;2023-04-21T07:57:14;21.10;;;10.60;;
61806;SDS011;47726;52.766;6.606;2023-04-21T07:59:40;17.70;;;11.07;;
61806;SDS011;47726;52.766;6.606;2023-04-21T08:02:06;16.13;;;10.73;;
61806;SDS011;47726;52.766;6.606;2023-04-21T08:04:32;19.92;;;11.13;;
61806;SDS011;47726;52.766;6.606;2023-04-21T08:06:58;20.05;;;11.40;;
61806;SDS011;47726;52.766;6.606;2023-04-21T08:09:24;17.88;;;11.85;;
61806;SDS011;47726;52.766;6.606;2023-04-21T08:11:50;18.75;;;11.30;;
61806;SDS011;47726;52.766;6.606;2023-04-21T08:14:16;17.35;;;11.10;;
61806;SDS011;47726;52.766;6.606;2023-04-21T08:16:41;17.40;;;11.73;;
61806;SDS011;47726;52.766;6.606;2023-04-21T08:19:07;17.08;;;11.00;;
61806;SDS011;47726;52.766;6.606;2023-04-21T08:21:33;18.38;;;11.65;;
61806;SDS011;47726;52.766;6.606;2023-04-21T08:23:59;21.23;;;11.98;;
61806;SDS011;47726;52.766;6.606;2023-04-21T08:26:25;19.65;;;11.27;;
61806;SDS011;47726;52.766;6.606;2023-04-21T08:28:51;17.65;;;11.57;;
61806;SDS011;47726;52.766;6.606;2023-04-21T08:31:19;15.57;;;11.13;;
61806;SDS011;47726;52.766;6.606;2023-04-21T08:33:45;17.73;;;11.00;;
61806;SDS011;47726;52.766;6.606;2023-04-21T08:36:11;20.10;;;11.45;;
61806;SDS011;47726;52.766;6.606;2023-04-21T08:38:37;20.17;;;11.20;;
61806;SDS011;47726;52.766;6.606;2023-04-21T08:41:03;18.15;;;10.88;;
61806;SDS011;47726;52.766;6.606;2023-04-21T08:43:29;19.13;;;11.02;;
61806;SDS011;47726;52.766;6.606;2023-04-21T08:45:55;18.58;;;10.93;;
61806;SDS011;47726;52.766;6.606;2023-04-21T08:48:21;20.90;;;11.73;;
61806;SDS011;47726;52.766;6.606;2023-04-21T08:50:58;18.83;;;11.27;;
61806;SDS011;47726;52.766;6.606;2023-04-21T08:53:23;18.33;;;11.35;;
61806;SDS011;47726;52.766;6.606;2023-04-21T08:55:52;18.98;;;11.15;;
61806;SDS011;47726;52.766;6.606;2023-04-21T08:58:20;21.60;;;11.68;;
61806;SDS011;47726;52.766;6.606;2023-04-21T09:00:47;16.85;;;11.38;;
61806;SDS011;47726;52.766;6.606;2023-04-21T09:03:13;18.33;;;11.85;;
61806;SDS011;47726;52.766;6.606;2023-04-21T09:05:55;17.65;;;11.43;;
61806;SDS011;47726;52.766;6.606;2023-04-21T09:08:22;19.42;;;11.32;;
61806;SDS011;47726;52.766;6.606;2023-04-21T09:10:49;19.42;;;11.13;;
61806;SDS011;47726;52.766;6.606;2023-04-21T09:13:16;17.20;;;10.80;;
61806;SDS011;47726;52.766;6.606;2023-04-21T09:15:43;15.65;;;11.27;;
61806;SDS011;47726;52.766;6.606;2023-04-21T09:20:41;14.57;;;11.07;;
61806;SDS011;47726;52.766;6.606;2023-04-21T09:23:08;17.33;;;11.30;;
61806;SDS011;47726;52.766;6.606;2023-04-21T09:25:36;18.70;;;11.50;;
61806;SDS011;47726;52.766;6.606;2023-04-21T09:28:07;20.90;;;10.85;;
61806;SDS011;47726;52.766;6.606;2023-04-21T09:30:34;16.02;;;11.30;;
61806;SDS011;47726;52.766;6.606;2023-04-21T09:33:00;16.60;;;11.18;;
61806;SDS011;47726;52.766;6.606;2023-04-21T09:35:26;18.52;;;11.32;;
61806;SDS011;47726;52.766;6.606;2023-04-21T09:37:59;16.83;;;11.15;;
61806;SDS011;47726;52.766;6.606;2023-04-21T09:40:27;18.00;;;11.27;;
61806;SDS011;47726;52.766;6.606;2023-04-21T09:42:56;17.45;;;10.95;;
61806;SDS011;47726;52.766;6.606;2023-04-21T09:45:23;18.92;;;10.98;;
61806;SDS011;47726;52.766;6.606;2023-04-21T09:47:53;16.77;;;11.05;;
61806;SDS011;47726;52.766;6.606;2023-04-21T09:50:20;16.42;;;11.25;;
61806;SDS011;47726;52.766;6.606;2023-04-21T09:52:49;14.55;;;10.75;;
61806;SDS011;47726;52.766;6.606;2023-04-21T09:55:17;19.70;;;12.10;;
61806;SDS011;47726;52.766;6.606;2023-04-21T09:57:43;16.42;;;11.10;;
61806;SDS011;47726;52.766;6.606;2023-04-21T10:00:12;15.10;;;10.65;;
61806;SDS011;47726;52.766;6.606;2023-04-21T10:02:47;16.25;;;11.02;;
61806;SDS011;47726;52.766;6.606;2023-04-21T10:05:14;16.63;;;10.70;;
61806;SDS011;47726;52.766;6.606;2023-04-21T10:07:40;17.95;;;11.13;;
61806;SDS011;47726;52.766;6.606;2023-04-21T10:10:06;18.45;;;11.40;;
61806;SDS011;47726;52.766;6.606;2023-04-21T10:12:36;19.13;;;11.27;;
61806;SDS011;47726;52.766;6.606;2023-04-21T10:15:03;15.60;;;10.70;;
61806;SDS011;47726;52.766;6.606;2023-04-21T10:17:31;17.65;;;10.63;;
61806;SDS011;47726;52.766;6.606;2023-04-21T10:20:00;16.08;;;11.23;;
61806;SDS011;47726;52.766;6.606;2023-04-21T10:22:33;14.95;;;10.85;;
61806;SDS011;47726;52.766;6.606;2023-04-21T10:25:00;16.48;;;11.10;;
61806;SDS011;47726;52.766;6.606;2023-04-21T10:27:31;18.27;;;11.27;;
61806;SDS011;47726;52.766;6.606;2023-04-21T10:30:20;17.65;;;11.68;;
61806;SDS011;47726;52.766;6.606;2023-04-21T10:32:47;15.45;;;10.95;;
61806;SDS011;47726;52.766;6.606;2023-04-21T10:35:36;17.55;;;11.52;;
61806;SDS011;47726;52.766;6.606;2023-04-21T10:38:32;16.73;;;11.57;;
61806;SDS011;47726;52.766;6.606;2023-04-21T10:43:54;16.42;;;10.82;;
61806;SDS011;47726;52.766;6.606;2023-04-21T10:46:34;17.25;;;11.20;;
61806;SDS011;47726;52.766;6.606;2023-04-21T10:52:18;17.23;;;11.50;;
61806;SDS011;47726;52.766;6.606;2023-04-21T10:57:18;17.48;;;11.65;;
61806;SDS011;47726;52.766;6.606;2023-04-21T10:59:45;17.08;;;11.70;;
61806;SDS011;47726;52.766;6.606;2023-04-21T11:02:14;16.08;;;11.57;;
61806;SDS011;47726;52.766;6.606;2023-04-21T11:04:41;17.83;;;11.80;;
61806;SDS011;47726;52.766;6.606;2023-04-21T11:07:18;16.10;;;11.63;;
61806;SDS011;47726;52.766;6.606;2023-04-21T11:09:46;16.98;;;11.20;;
61806;SDS011;47726;52.766;6.606;2023-04-21T11:12:13;16.77;;;11.45;;
61806;SDS011;47726;52.766;6.606;2023-04-21T11:14:42;17.83;;;11.70;;
61806;SDS011;47726;52.766;6.606;2023-04-21T11:17:10;18.48;;;11.65;;
61806;SDS011;47726;52.766;6.606;2023-04-21T11:19:37;18.60;;;11.75;;
61806;SDS011;47726;52.766;6.606;2023-04-21T11:22:03;20.25;;;11.68;;
61806;SDS011;47726;52.766;6.606;2023-04-21T11:24:32;18.50;;;11.02;;
61806;SDS011;47726;52.766;6.606;2023-04-21T11:26:58;14.25;;;10.88;;
61806;SDS011;47726;52.766;6.606;2023-04-21T11:29:26;17.13;;;10.80;;
61806;SDS011;47726;52.766;6.606;2023-04-21T11:31:53;16.50;;;10.60;;
61806;SDS011;47726;52.766;6.606;2023-04-21T11:34:19;17.45;;;11.32;;
61806;SDS011;47726;52.766;6.606;2023-04-21T11:36:46;17.60;;;10.63;;
61806;SDS011;47726;52.766;6.606;2023-04-21T11:39:13;19.70;;;10.27;;
61806;SDS011;47726;52.766;6.606;2023-04-21T11:41:41;17.13;;;10.52;;
61806;SDS011;47726;52.766;6.606;2023-04-21T11:44:08;14.68;;;10.48;;
61806;SDS011;47726;52.766;6.606;2023-04-21T11:46:44;17.42;;;10.98;;
61806;SDS011;47726;52.766;6.606;2023-04-21T11:49:13;16.23;;;10.75;;
61806;SDS011;47726;52.766;6.606;2023-04-21T11:51:41;15.73;;;10.40;;
61806;SDS011;47726;52.766;6.606;2023-04-21T11:54:10;14.93;;;10.27;;
61806;SDS011;47726;52.766;6.606;2023-04-21T11:56:41;16.35;;;10.27;;
61806;SDS011;47726;52.766;6.606;2023-04-21T11:59:17;17.35;;;9.80;;
61806;SDS011;47726;52.766;6.606;2023-04-21T12:01:52;15.57;;;9.20;;
61806;SDS011;47726;52.766;6.606;2023-04-21T12:04:22;17.05;;;9.38;;
61806;SDS011;47726;52.766;6.606;2023-04-21T12:06:56;14.45;;;9.32;;
61806;SDS011;47726;52.766;6.606;2023-04-21T12:09:23;14.80;;;8.50;;
61806;SDS011;47726;52.766;6.606;2023-04-21T12:11:51;13.88;;;8.25;;
61806;SDS011;47726;52.766;6.606;2023-04-21T12:14:18;15.60;;;8.98;;
61806;SDS011;47726;52.766;6.606;2023-04-21T12:16:47;17.52;;;11.38;;
61806;SDS011;47726;52.766;6.606;2023-04-21T12:22:10;16.00;;;10.40;;
61806;SDS011;47726;52.766;6.606;2023-04-21T12:24:37;16.77;;;10.50;;
61806;SDS011;47726;52.766;6.606;2023-04-21T12:27:03;14.68;;;9.90;;
61806;SDS011;47726;52.766;6.606;2023-04-21T12:29:29;15.70;;;10.82;;
61806;SDS011;47726;52.766;6.606;2023-04-21T12:31:55;15.75;;;10.43;;
61806;SDS011;47726;52.766;6.606;2023-04-21T12:34:21;16.02;;;9.82;;
61806;SDS011;47726;52.766;6.606;2023-04-21T12:36:46;14.98;;;9.73;;
61806;SDS011;47726;52.766;6.606;2023-04-21T12:39:12;13.85;;;9.52;;
61806;SDS011;47726;52.766;6.606;2023-04-21T12:41:38;15.98;;;9.65;;
61806;SDS011;47726;52.766;6.606;2023-04-21T12:44:04;13.98;;;8.85;;
61806;SDS011;47726;52.766;6.606;2023-04-21T12:46:30;15.15;;;8.77;;
61806;SDS011;47726;52.766;6.606;2023-04-21T12:48:56;12.50;;;8.45;;
61806;SDS011;47726;52.766;6.606;2023-04-21T12:51:21;13.70;;;8.27;;
61806;SDS011;47726;52.766;6.606;2023-04-21T12:53:47;15.05;;;9.23;;
61806;SDS011;47726;52.766;6.606;2023-04-21T12:56:13;14.10;;;8.65;;
61806;SDS011;47726;52.766;6.606;2023-04-21T12:58:39;13.13;;;8.40;;
61806;SDS011;47726;52.766;6.606;2023-04-21T13:01:06;13.68;;;8.32;;
61806;SDS011;47726;52.766;6.606;2023-04-21T13:03:32;15.10;;;8.25;;
61806;SDS011;47726;52.766;6.606;2023-04-21T13:05:57;13.48;;;8.93;;
61806;SDS011;47726;52.766;6.606;2023-04-21T13:08:23;14.15;;;8.70;;
61806;SDS011;47726;52.766;6.606;2023-04-21T13:10:49;11.48;;;8.52;;
61806;SDS011;47726;52.766;6.606;2023-04-21T13:13:15;13.93;;;8.32;;
61806;SDS011;47726;52.766;6.606;2023-04-21T13:15:40;13.15;;;8.13;;
61806;SDS011;47726;52.766;6.606;2023-04-21T13:18:06;12.80;;;8.20;;
61806;SDS011;47726;52.766;6.606;2023-04-21T13:20:31;10.90;;;6.93;;
61806;SDS011;47726;52.766;6.606;2023-04-21T13:22:57;9.75;;;6.22;;
61806;SDS011;47726;52.766;6.606;2023-04-21T13:25:23;10.63;;;6.22;;
61806;SDS011;47726;52.766;6.606;2023-04-21T13:27:48;10.98;;;5.75;;
61806;SDS011;47726;52.766;6.606;2023-04-21T13:30:14;12.75;;;6.32;;
61806;SDS011;47726;52.766;6.606;2023-04-21T13:32:40;12.40;;;6.00;;
61806;SDS011;47726;52.766;6.606;2023-04-21T13:35:07;13.52;;;5.53;;
61806;SDS011;47726;52.766;6.606;2023-04-21T13:37:37;11.13;;;5.47;;
61806;SDS011;47726;52.766;6.606;2023-04-21T13:40:04;14.35;;;5.93;;
61806;SDS011;47726;52.766;6.606;2023-04-21T13:42:30;11.43;;;5.40;;
61806;SDS011;47726;52.766;6.606;2023-04-21T13:44:57;13.07;;;5.20;;
61806;SDS011;47726;52.766;6.606;2023-04-21T13:47:24;11.57;;;5.05;;
61806;SDS011;47726;52.766;6.606;2023-04-21T13:49:50;11.95;;;4.70;;
61806;SDS011;47726;52.766;6.606;2023-04-21T13:52:16;11.63;;;4.80;;
61806;SDS011;47726;52.766;6.606;2023-04-21T13:54:41;9.57;;;5.05;;
61806;SDS011;47726;52.766;6.606;2023-04-21T13:57:07;10.77;;;5.10;;
61806;SDS011;47726;52.766;6.606;2023-04-21T13:59:33;9.75;;;4.95;;
61806;SDS011;47726;52.766;6.606;2023-04-21T14:01:58;13.30;;;5.00;;
61806;SDS011;47726;52.766;6.606;2023-04-21T14:04:24;11.23;;;4.72;;
61806;SDS011;47726;52.766;6.606;2023-04-21T14:06:50;8.68;;;5.00;;
61806;SDS011;47726;52.766;6.606;2023-04-21T14:09:15;10.77;;;5.13;;
61806;SDS011;47726;52.766;6.606;2023-04-21T14:11:41;12.80;;;5.15;;
61806;SDS011;47726;52.766;6.606;2023-04-21T14:14:06;7.95;;;4.60;;
61806;SDS011;47726;52.766;6.606;2023-04-21T14:16:32;9.60;;;4.60;;
61806;SDS011;47726;52.766;6.606;2023-04-21T14:18:58;10.63;;;4.50;;
61806;SDS011;47726;52.766;6.606;2023-04-21T14:21:23;11.40;;;4.93;;
61806;SDS011;47726;52.766;6.606;2023-04-21T14:23:49;10.88;;;4.53;;
61806;SDS011;47726;52.766;6.606;2023-04-21T14:26:14;8.27;;;4.43;;
61806;SDS011;47726;52.766;6.606;2023-04-21T14:28:40;10.43;;;4.32;;
61806;SDS011;47726;52.766;6.606;2023-04-21T14:31:06;9.30;;;4.50;;
61806;SDS011;47726;52.766;6.606;2023-04-21T14:33:32;9.57;;;4.30;;
61806;SDS011;47726;52.766;6.606;2023-04-21T14:35:58;8.25;;;4.40;;